DLH3731 EKCH-EGPH
Flight info
| Callsign | DLH3731 |
|---|---|
| Flight time | 1h 32m |
| Altitude | 40000 |
| Route | ODDON DCT PETIL DCT SURAT DCT ROBEM DCT AGPED |
| Aircraft | A359/H-SDE2E3GHIJ3J4J5LM1ORWXY/LB1D1 |
Departure
| Time | 2026-05-04 20:30 |
|---|---|
| Airport | Copenhagen Kastrup Airport (EKCH) |
Arrival
| Time | 2026-05-04 22:02 |
|---|---|
| Airport | Edinburgh Airport (EGPH) |
| Time | Latitude | Longitude | Altitude | Speed | Heading |
|---|---|---|---|---|---|
| 2026-05-04 20:06 | 55.62362 | 12.65068 | 28 ft | 0 kts | 285° |
| 2026-05-04 20:17 | 55.62360 | 12.65078 | 28 ft | 2 kts | 285° |
| 2026-05-04 20:18 | 55.62356 | 12.65105 | 27 ft | 2 kts | 285° |
| 2026-05-04 20:18 | 55.62352 | 12.65130 | 26 ft | 2 kts | 285° |
| 2026-05-04 20:18 | 55.62350 | 12.65161 | 25 ft | 3 kts | 250° |
| 2026-05-04 20:18 | 55.62360 | 12.65188 | 24 ft | 3 kts | 211° |
| 2026-05-04 20:19 | 55.62367 | 12.65197 | 26 ft | 0 kts | 194° |
| 2026-05-04 20:20 | 55.62349 | 12.65188 | 24 ft | 0 kts | 194° |
| 2026-05-04 20:21 | 55.62348 | 12.65188 | 24 ft | 0 kts | 192° |
| 2026-05-04 20:22 | 55.62335 | 12.65187 | 26 ft | 5 kts | 185° |
| 2026-05-04 20:22 | 55.62295 | 12.65160 | 28 ft | 7 kts | 217° |
| 2026-05-04 20:22 | 55.62284 | 12.65085 | 29 ft | 7 kts | 280° |
| 2026-05-04 20:22 | 55.62303 | 12.65003 | 29 ft | 7 kts | 300° |
| 2026-05-04 20:23 | 55.62332 | 12.64919 | 30 ft | 9 kts | 302° |
| 2026-05-04 20:23 | 55.62345 | 12.64810 | 30 ft | 10 kts | 261° |
| 2026-05-04 20:23 | 55.62316 | 12.64669 | 27 ft | 15 kts | 246° |
| 2026-05-04 20:23 | 55.62299 | 12.64603 | 31 ft | 0 kts | 246° |
| 2026-05-04 20:25 | 55.62299 | 12.64602 | 31 ft | 1 kts | 246° |
| 2026-05-04 20:25 | 55.62293 | 12.64578 | 30 ft | 4 kts | 246° |
| 2026-05-04 20:25 | 55.62283 | 12.64536 | 31 ft | 7 kts | 246° |
| 2026-05-04 20:26 | 55.62257 | 12.64447 | 29 ft | 10 kts | 239° |
| 2026-05-04 20:26 | 55.62193 | 12.64343 | 23 ft | 15 kts | 210° |
| 2026-05-04 20:26 | 55.62097 | 12.64257 | 29 ft | 15 kts | 205° |
| 2026-05-04 20:26 | 55.61994 | 12.64172 | 30 ft | 17 kts | 205° |
| 2026-05-04 20:27 | 55.61888 | 12.64087 | 28 ft | 11 kts | 199° |
| 2026-05-04 20:27 | 55.61860 | 12.64077 | 28 ft | 10 kts | 187° |
| 2026-05-04 20:27 | 55.61777 | 12.64077 | 29 ft | 9 kts | 177° |
| 2026-05-04 20:27 | 55.61774 | 12.64077 | 28 ft | 0 kts | 178° |
| 2026-05-04 20:28 | 55.61727 | 12.64082 | 30 ft | 24 kts | 177° |
| 2026-05-04 20:28 | 55.61650 | 12.64073 | 27 ft | 0 kts | 197° |
| 2026-05-04 20:28 | 55.61623 | 12.64050 | 27 ft | 11 kts | 212° |
| 2026-05-04 20:29 | 55.61549 | 12.63949 | 28 ft | 16 kts | 220° |
| 2026-05-04 20:29 | 55.61337 | 12.63622 | 30 ft | 77 kts | 220° |
| 2026-05-04 20:29 | 55.60764 | 12.62725 | 26 ft | 141 kts | 223° |
| 2026-05-04 20:29 | 55.59936 | 12.61354 | 373 ft | 169 kts | 224° |
| 2026-05-04 20:30 | 55.59030 | 12.59995 | 1129 ft | 174 kts | 222° |
| 2026-05-04 20:30 | 55.58050 | 12.58550 | 1630 ft | 200 kts | 224° |
| 2026-05-04 20:30 | 55.57143 | 12.56564 | 2171 ft | 216 kts | 248° |
| 2026-05-04 20:30 | 55.56943 | 12.53858 | 2808 ft | 232 kts | 274° |
| 2026-05-04 20:31 | 55.57080 | 12.50917 | 3659 ft | 241 kts | 276° |
| 2026-05-04 20:31 | 55.57234 | 12.47988 | 4602 ft | 244 kts | 275° |
| 2026-05-04 20:31 | 55.57377 | 12.44983 | 5477 ft | 247 kts | 274° |
| 2026-05-04 20:31 | 55.57512 | 12.41936 | 6314 ft | 251 kts | 274° |
| 2026-05-04 20:32 | 55.57643 | 12.38844 | 6809 ft | 253 kts | 274° |
| 2026-05-04 20:32 | 55.57771 | 12.35740 | 6982 ft | 254 kts | 273° |
| 2026-05-04 20:32 | 55.57899 | 12.32607 | 6994 ft | 256 kts | 273° |
| 2026-05-04 20:32 | 55.58025 | 12.29459 | 6990 ft | 257 kts | 273° |
| 2026-05-04 20:33 | 55.58129 | 12.26317 | 6990 ft | 257 kts | 272° |
| 2026-05-04 20:33 | 55.58225 | 12.23164 | 6989 ft | 257 kts | 272° |
| 2026-05-04 20:33 | 55.58321 | 12.20015 | 6988 ft | 257 kts | 272° |
| 2026-05-04 20:33 | 55.58418 | 12.16859 | 6993 ft | 256 kts | 272° |
| 2026-05-04 20:34 | 55.58515 | 12.13709 | 6994 ft | 256 kts | 272° |
| 2026-05-04 20:34 | 55.58611 | 12.10565 | 6993 ft | 257 kts | 272° |
| 2026-05-04 20:34 | 55.58707 | 12.07452 | 6993 ft | 257 kts | 272° |
| 2026-05-04 20:34 | 55.58802 | 12.04303 | 7081 ft | 256 kts | 272° |
| 2026-05-04 20:35 | 55.58898 | 12.01143 | 7547 ft | 259 kts | 272° |
| 2026-05-04 20:35 | 55.58993 | 11.97957 | 8503 ft | 259 kts | 272° |
| 2026-05-04 20:35 | 55.59088 | 11.94774 | 9560 ft | 259 kts | 272° |
| 2026-05-04 20:35 | 55.59183 | 11.91565 | 10421 ft | 266 kts | 272° |
| 2026-05-04 20:36 | 55.59281 | 11.88178 | 10859 ft | 287 kts | 272° |
| 2026-05-04 20:36 | 55.59386 | 11.84519 | 11295 ft | 307 kts | 272° |
| 2026-05-04 20:36 | 55.59495 | 11.80662 | 11963 ft | 318 kts | 272° |
| 2026-05-04 20:36 | 55.59608 | 11.76718 | 12787 ft | 324 kts | 272° |
| 2026-05-04 20:37 | 55.59720 | 11.72712 | 13611 ft | 329 kts | 271° |
| 2026-05-04 20:37 | 55.59813 | 11.69337 | 14237 ft | 333 kts | 271° |
| 2026-05-04 20:37 | 55.59921 | 11.65407 | 14961 ft | 337 kts | 272° |
| 2026-05-04 20:37 | 55.60034 | 11.61209 | 15723 ft | 341 kts | 272° |
| 2026-05-04 20:38 | 55.60147 | 11.56990 | 16436 ft | 346 kts | 272° |
| 2026-05-04 20:38 | 55.60259 | 11.52715 | 17182 ft | 350 kts | 272° |
| 2026-05-04 20:38 | 55.60372 | 11.48383 | 17937 ft | 354 kts | 272° |
| 2026-05-04 20:38 | 55.60484 | 11.44003 | 18659 ft | 359 kts | 272° |
| 2026-05-04 20:39 | 55.60572 | 11.39565 | 19354 ft | 362 kts | 270° |
| 2026-05-04 20:39 | 55.60497 | 11.35099 | 20078 ft | 366 kts | 267° |
| 2026-05-04 20:39 | 55.60357 | 11.30584 | 20787 ft | 369 kts | 266° |
| 2026-05-04 20:39 | 55.60207 | 11.26022 | 21493 ft | 373 kts | 266° |
| 2026-05-04 20:40 | 55.60056 | 11.21420 | 22195 ft | 377 kts | 266° |
| 2026-05-04 20:40 | 55.59903 | 11.16768 | 22879 ft | 381 kts | 266° |
| 2026-05-04 20:40 | 55.59747 | 11.12073 | 23561 ft | 384 kts | 266° |
| 2026-05-04 20:40 | 55.59588 | 11.07338 | 24125 ft | 388 kts | 266° |
| 2026-05-04 20:41 | 55.59426 | 11.02542 | 24672 ft | 392 kts | 266° |
| 2026-05-04 20:41 | 55.59261 | 10.97705 | 25220 ft | 396 kts | 266° |
| 2026-05-04 20:41 | 55.59094 | 10.92882 | 25750 ft | 400 kts | 266° |
| 2026-05-04 20:41 | 55.58922 | 10.87955 | 26299 ft | 403 kts | 266° |
| 2026-05-04 20:42 | 55.58745 | 10.82972 | 26843 ft | 407 kts | 266° |
| 2026-05-04 20:42 | 55.58566 | 10.77959 | 27378 ft | 411 kts | 266° |
| 2026-05-04 20:42 | 55.58383 | 10.72898 | 27911 ft | 414 kts | 266° |
| 2026-05-04 20:42 | 55.58222 | 10.67784 | 28442 ft | 418 kts | 268° |
| 2026-05-04 20:43 | 55.58349 | 10.62639 | 28940 ft | 422 kts | 275° |
| 2026-05-04 20:43 | 55.58704 | 10.57465 | 29428 ft | 426 kts | 277° |
| 2026-05-04 20:43 | 55.59140 | 10.52239 | 29913 ft | 430 kts | 277° |
| 2026-05-04 20:43 | 55.59605 | 10.47058 | 30326 ft | 433 kts | 278° |
| 2026-05-04 20:44 | 55.60086 | 10.41760 | 30721 ft | 437 kts | 278° |
| 2026-05-04 20:44 | 55.60561 | 10.36440 | 31099 ft | 440 kts | 278° |
| 2026-05-04 20:44 | 55.61030 | 10.31073 | 31483 ft | 443 kts | 277° |
| 2026-05-04 20:44 | 55.61493 | 10.25655 | 31847 ft | 446 kts | 277° |
| 2026-05-04 20:45 | 55.61950 | 10.20210 | 32203 ft | 449 kts | 277° |
| 2026-05-04 20:45 | 55.62399 | 10.14795 | 32544 ft | 452 kts | 277° |
| 2026-05-04 20:45 | 55.62853 | 10.09279 | 32892 ft | 454 kts | 277° |
| 2026-05-04 20:45 | 55.63307 | 10.03729 | 33237 ft | 456 kts | 277° |
| 2026-05-04 20:46 | 55.63761 | 9.98152 | 33566 ft | 459 kts | 277° |
| 2026-05-04 20:46 | 55.64214 | 9.92558 | 33865 ft | 461 kts | 277° |
| 2026-05-04 20:46 | 55.64669 | 9.86909 | 34155 ft | 463 kts | 277° |
| 2026-05-04 20:46 | 55.65121 | 9.81277 | 34538 ft | 462 kts | 277° |
| 2026-05-04 20:47 | 55.65569 | 9.75657 | 34931 ft | 460 kts | 277° |
| 2026-05-04 20:47 | 55.66013 | 9.70048 | 35296 ft | 459 kts | 277° |
| 2026-05-04 20:47 | 55.66454 | 9.64444 | 35644 ft | 459 kts | 277° |
| 2026-05-04 20:47 | 55.66891 | 9.58862 | 35980 ft | 458 kts | 277° |
| 2026-05-04 20:48 | 55.67326 | 9.53266 | 36303 ft | 458 kts | 277° |
| 2026-05-04 20:48 | 55.67758 | 9.47672 | 36627 ft | 458 kts | 277° |
| 2026-05-04 20:48 | 55.68187 | 9.42086 | 36934 ft | 457 kts | 277° |
| 2026-05-04 20:48 | 55.68608 | 9.36562 | 37247 ft | 457 kts | 277° |
| 2026-05-04 20:49 | 55.69031 | 9.30993 | 37560 ft | 456 kts | 276° |
| 2026-05-04 20:49 | 55.69451 | 9.25417 | 37867 ft | 456 kts | 276° |
| 2026-05-04 20:49 | 55.69870 | 9.19832 | 38166 ft | 455 kts | 276° |
| 2026-05-04 20:49 | 55.70284 | 9.14277 | 38459 ft | 455 kts | 276° |
| 2026-05-04 20:50 | 55.70695 | 9.08716 | 38712 ft | 454 kts | 276° |
| 2026-05-04 20:50 | 55.71104 | 9.03155 | 38898 ft | 455 kts | 276° |
| 2026-05-04 20:50 | 55.71511 | 8.97583 | 39083 ft | 455 kts | 276° |
| 2026-05-04 20:50 | 55.71914 | 8.92021 | 39245 ft | 455 kts | 276° |
| 2026-05-04 20:51 | 55.72316 | 8.86448 | 39422 ft | 456 kts | 276° |
| 2026-05-04 20:51 | 55.72716 | 8.80864 | 39576 ft | 456 kts | 276° |
| 2026-05-04 20:51 | 55.73114 | 8.75279 | 39748 ft | 457 kts | 276° |
| 2026-05-04 20:51 | 55.73505 | 8.69746 | 38997 ft | 457 kts | 276° |
| 2026-05-04 20:52 | 55.73896 | 8.64191 | 40148 ft | 453 kts | 276° |
| 2026-05-04 20:52 | 55.74285 | 8.58634 | 40173 ft | 456 kts | 276° |
| 2026-05-04 20:52 | 55.75060 | 8.47397 | 40165 ft | 459 kts | 276° |
| 2026-05-04 20:53 | 55.75828 | 8.36131 | 40168 ft | 459 kts | 276° |
| 2026-05-04 20:53 | 55.76584 | 8.24888 | 40168 ft | 459 kts | 276° |
| 2026-05-04 20:54 | 55.77329 | 8.13642 | 40168 ft | 459 kts | 275° |
| 2026-05-04 20:54 | 55.78064 | 8.02396 | 40168 ft | 458 kts | 275° |
| 2026-05-04 20:55 | 55.78790 | 7.91112 | 40168 ft | 459 kts | 275° |
| 2026-05-04 20:55 | 55.79502 | 7.79896 | 40168 ft | 459 kts | 275° |
| 2026-05-04 20:56 | 55.80208 | 7.68611 | 40173 ft | 460 kts | 275° |
| 2026-05-04 20:56 | 55.80903 | 7.57323 | 40175 ft | 460 kts | 275° |
| 2026-05-04 20:57 | 55.81589 | 7.46005 | 40174 ft | 460 kts | 275° |
| 2026-05-04 20:57 | 55.82265 | 7.34684 | 40178 ft | 460 kts | 275° |
| 2026-05-04 20:58 | 55.82925 | 7.23460 | 40176 ft | 460 kts | 275° |
| 2026-05-04 20:58 | 55.83580 | 7.12129 | 40175 ft | 460 kts | 275° |
| 2026-05-04 20:59 | 55.84225 | 7.00796 | 40173 ft | 460 kts | 275° |
| 2026-05-04 20:59 | 55.84859 | 6.89466 | 40180 ft | 460 kts | 275° |
| 2026-05-04 21:00 | 55.85482 | 6.78140 | 40178 ft | 460 kts | 274° |
| 2026-05-04 21:00 | 55.86097 | 6.66780 | 40184 ft | 461 kts | 274° |
| 2026-05-04 21:01 | 55.86697 | 6.55482 | 40181 ft | 461 kts | 274° |
| 2026-05-04 21:01 | 55.87291 | 6.44109 | 40181 ft | 461 kts | 274° |
| 2026-05-04 21:02 | 55.87875 | 6.32731 | 40180 ft | 461 kts | 274° |
| 2026-05-04 21:02 | 55.88448 | 6.21345 | 40187 ft | 461 kts | 274° |
| 2026-05-04 21:03 | 55.89010 | 6.09958 | 40183 ft | 462 kts | 274° |
| 2026-05-04 21:03 | 55.89562 | 5.98570 | 40183 ft | 462 kts | 274° |
| 2026-05-04 21:04 | 55.90105 | 5.87152 | 40183 ft | 462 kts | 274° |
| 2026-05-04 21:04 | 55.90636 | 5.75754 | 40183 ft | 462 kts | 274° |
| 2026-05-04 21:05 | 55.91158 | 5.64335 | 40190 ft | 462 kts | 274° |
| 2026-05-04 21:05 | 55.91668 | 5.52919 | 40186 ft | 462 kts | 274° |
| 2026-05-04 21:06 | 55.92168 | 5.41497 | 40185 ft | 462 kts | 274° |
| 2026-05-04 21:06 | 55.92658 | 5.30077 | 40186 ft | 462 kts | 274° |
| 2026-05-04 21:07 | 55.93137 | 5.18652 | 40189 ft | 462 kts | 274° |
| 2026-05-04 21:07 | 55.93605 | 5.07234 | 40188 ft | 462 kts | 273° |
| 2026-05-04 21:08 | 55.93835 | 4.95870 | 40189 ft | 461 kts | 269° |
| 2026-05-04 21:08 | 55.93755 | 4.84430 | 40189 ft | 461 kts | 268° |
| 2026-05-04 21:09 | 55.93619 | 4.72966 | 40191 ft | 461 kts | 268° |
| 2026-05-04 21:09 | 55.93470 | 4.61527 | 40191 ft | 461 kts | 268° |
| 2026-05-04 21:10 | 55.93316 | 4.50083 | 40192 ft | 461 kts | 268° |
| 2026-05-04 21:10 | 55.93155 | 4.38645 | 40191 ft | 461 kts | 268° |
| 2026-05-04 21:11 | 55.92985 | 4.27282 | 40191 ft | 461 kts | 268° |
| 2026-05-04 21:11 | 55.92804 | 4.15864 | 40191 ft | 461 kts | 268° |
| 2026-05-04 21:12 | 55.92612 | 4.04440 | 40192 ft | 461 kts | 268° |
| 2026-05-04 21:12 | 55.92409 | 3.93023 | 40190 ft | 461 kts | 268° |
| 2026-05-04 21:13 | 55.92195 | 3.81595 | 40187 ft | 461 kts | 268° |
| 2026-05-04 21:13 | 55.92011 | 3.72170 | 40188 ft | 461 kts | 268° |
| 2026-05-04 21:14 | 55.91779 | 3.60758 | 40183 ft | 461 kts | 268° |
| 2026-05-04 21:14 | 55.91430 | 3.49351 | 40186 ft | 461 kts | 263° |
| 2026-05-04 21:15 | 55.90587 | 3.38035 | 40194 ft | 461 kts | 262° |
| 2026-05-04 21:15 | 55.89648 | 3.26742 | 40191 ft | 460 kts | 262° |
| 2026-05-04 21:16 | 55.88689 | 3.15476 | 40195 ft | 460 kts | 262° |
| 2026-05-04 21:16 | 55.87732 | 3.04274 | 40193 ft | 460 kts | 262° |
| 2026-05-04 21:17 | 55.86763 | 2.93003 | 40198 ft | 460 kts | 261° |
| 2026-05-04 21:17 | 55.85786 | 2.81741 | 40201 ft | 460 kts | 261° |
| 2026-05-04 21:18 | 55.84798 | 2.70486 | 40196 ft | 460 kts | 262° |
| 2026-05-04 21:18 | 55.83801 | 2.59252 | 40196 ft | 459 kts | 261° |
| 2026-05-04 21:19 | 55.82801 | 2.48107 | 40198 ft | 459 kts | 261° |
| 2026-05-04 21:19 | 55.81784 | 2.36881 | 40196 ft | 460 kts | 261° |
| 2026-05-04 21:20 | 55.80770 | 2.25809 | 40200 ft | 460 kts | 261° |
| 2026-05-04 21:20 | 55.79732 | 2.14602 | 40193 ft | 459 kts | 261° |
| 2026-05-04 21:21 | 55.78684 | 2.03399 | 40197 ft | 459 kts | 261° |
| 2026-05-04 21:21 | 55.77628 | 1.92213 | 40193 ft | 459 kts | 261° |
| 2026-05-04 21:22 | 55.76562 | 1.81041 | 40189 ft | 460 kts | 261° |
| 2026-05-04 21:22 | 55.75487 | 1.69880 | 40194 ft | 462 kts | 261° |
| 2026-05-04 21:23 | 55.74391 | 1.58629 | 40194 ft | 462 kts | 261° |
| 2026-05-04 21:23 | 55.73285 | 1.47382 | 40193 ft | 462 kts | 261° |
| 2026-05-04 21:24 | 55.72168 | 1.36133 | 40191 ft | 462 kts | 260° |
| 2026-05-04 21:24 | 55.71042 | 1.24908 | 40192 ft | 463 kts | 260° |
| 2026-05-04 21:25 | 55.69905 | 1.13674 | 40192 ft | 463 kts | 260° |
| 2026-05-04 21:25 | 55.68759 | 1.02463 | 40191 ft | 462 kts | 260° |
| 2026-05-04 21:26 | 55.67603 | 0.91254 | 40191 ft | 462 kts | 260° |
| 2026-05-04 21:26 | 55.66437 | 0.80059 | 40191 ft | 462 kts | 260° |
| 2026-05-04 21:27 | 55.65258 | 0.68848 | 40192 ft | 462 kts | 260° |
| 2026-05-04 21:27 | 55.64080 | 0.57743 | 40186 ft | 462 kts | 260° |
| 2026-05-04 21:28 | 55.62884 | 0.46575 | 40186 ft | 461 kts | 260° |
| 2026-05-04 21:28 | 55.61679 | 0.35421 | 40186 ft | 461 kts | 260° |
| 2026-05-04 21:29 | 55.60466 | 0.24289 | 40187 ft | 461 kts | 260° |
| 2026-05-04 21:29 | 55.59242 | 0.13158 | 40187 ft | 461 kts | 260° |
| 2026-05-04 21:30 | 55.58007 | 0.02031 | 40186 ft | 461 kts | 259° |
| 2026-05-04 21:30 | 55.56764 | -0.09075 | 40185 ft | 460 kts | 259° |
| 2026-05-04 21:31 | 55.54888 | -0.25650 | 40184 ft | 460 kts | 259° |
| 2026-05-04 21:32 | 55.53622 | -0.36721 | 40183 ft | 460 kts | 259° |
| 2026-05-04 21:32 | 55.52343 | -0.47809 | 40182 ft | 460 kts | 259° |
| 2026-05-04 21:33 | 55.51055 | -0.58887 | 40180 ft | 463 kts | 259° |
| 2026-05-04 21:33 | 55.49756 | -0.69967 | 40182 ft | 464 kts | 259° |
| 2026-05-04 21:34 | 55.48438 | -0.81105 | 40185 ft | 464 kts | 259° |
| 2026-05-04 21:34 | 55.47111 | -0.92231 | 40173 ft | 464 kts | 259° |
| 2026-05-04 21:34 | 55.46394 | -0.97785 | 39852 ft | 464 kts | 255° |
| 2026-05-04 21:35 | 55.45300 | -1.03096 | 39268 ft | 464 kts | 246° |
| 2026-05-04 21:35 | 55.43751 | -1.08046 | 38638 ft | 465 kts | 240° |
| 2026-05-04 21:35 | 55.42055 | -1.12858 | 37874 ft | 464 kts | 240° |
| 2026-05-04 21:35 | 55.40468 | -1.17297 | 37277 ft | 462 kts | 240° |
| 2026-05-04 21:36 | 55.38756 | -1.22069 | 36607 ft | 461 kts | 240° |
| 2026-05-04 21:36 | 55.37049 | -1.26818 | 35944 ft | 460 kts | 240° |
| 2026-05-04 21:36 | 55.35336 | -1.31571 | 35248 ft | 459 kts | 240° |
| 2026-05-04 21:36 | 55.33622 | -1.36320 | 34494 ft | 460 kts | 240° |
| 2026-05-04 21:37 | 55.31902 | -1.41076 | 33652 ft | 462 kts | 240° |
| 2026-05-04 21:37 | 55.30174 | -1.45845 | 32798 ft | 462 kts | 240° |
| 2026-05-04 21:37 | 55.28447 | -1.50601 | 31959 ft | 462 kts | 240° |
| 2026-05-04 21:37 | 55.26724 | -1.55334 | 31318 ft | 458 kts | 239° |
| 2026-05-04 21:38 | 55.25019 | -1.60010 | 30740 ft | 453 kts | 239° |
| 2026-05-04 21:38 | 55.23323 | -1.64652 | 30150 ft | 450 kts | 239° |
| 2026-05-04 21:38 | 55.21641 | -1.69248 | 29494 ft | 446 kts | 239° |
| 2026-05-04 21:38 | 55.19975 | -1.73790 | 28893 ft | 441 kts | 239° |
| 2026-05-04 21:39 | 55.18323 | -1.78287 | 28308 ft | 437 kts | 239° |
| 2026-05-04 21:39 | 55.16687 | -1.82734 | 27728 ft | 432 kts | 239° |
| 2026-05-04 21:39 | 55.15140 | -1.87189 | 27154 ft | 426 kts | 244° |
| 2026-05-04 21:39 | 55.14117 | -1.91998 | 26635 ft | 418 kts | 258° |
| 2026-05-04 21:40 | 55.13850 | -1.97008 | 26075 ft | 413 kts | 272° |
| 2026-05-04 21:40 | 55.14323 | -2.01871 | 25516 ft | 414 kts | 287° |
| 2026-05-04 21:40 | 55.15528 | -2.06498 | 24922 ft | 422 kts | 301° |
| 2026-05-04 21:40 | 55.17233 | -2.10692 | 24322 ft | 422 kts | 302° |
| 2026-05-04 21:41 | 55.18786 | -2.15027 | 23737 ft | 419 kts | 299° |
| 2026-05-04 21:41 | 55.20254 | -2.19420 | 23089 ft | 415 kts | 298° |
| 2026-05-04 21:41 | 55.21687 | -2.23773 | 22498 ft | 410 kts | 298° |
| 2026-05-04 21:41 | 55.23097 | -2.28074 | 21927 ft | 407 kts | 298° |
| 2026-05-04 21:42 | 55.24502 | -2.32375 | 21375 ft | 404 kts | 298° |
| 2026-05-04 21:42 | 55.25893 | -2.36640 | 20788 ft | 400 kts | 298° |
| 2026-05-04 21:42 | 55.27263 | -2.40854 | 20241 ft | 395 kts | 298° |
| 2026-05-04 21:42 | 55.28614 | -2.45018 | 19680 ft | 391 kts | 298° |
| 2026-05-04 21:43 | 55.29912 | -2.49024 | 19171 ft | 387 kts | 298° |
| 2026-05-04 21:43 | 55.31237 | -2.53122 | 18632 ft | 385 kts | 298° |
| 2026-05-04 21:43 | 55.32540 | -2.57159 | 18047 ft | 384 kts | 298° |
| 2026-05-04 21:43 | 55.33850 | -2.61223 | 17495 ft | 381 kts | 298° |
| 2026-05-04 21:44 | 55.35148 | -2.65258 | 16920 ft | 378 kts | 298° |
| 2026-05-04 21:44 | 55.36438 | -2.69273 | 16385 ft | 375 kts | 298° |
| 2026-05-04 21:44 | 55.37711 | -2.73243 | 15849 ft | 372 kts | 298° |
| 2026-05-04 21:44 | 55.38974 | -2.77187 | 15336 ft | 369 kts | 298° |
| 2026-05-04 21:45 | 55.40230 | -2.81118 | 14809 ft | 367 kts | 298° |
| 2026-05-04 21:45 | 55.41475 | -2.85018 | 14309 ft | 364 kts | 298° |
| 2026-05-04 21:45 | 55.42711 | -2.88898 | 13863 ft | 359 kts | 298° |
| 2026-05-04 21:45 | 55.43909 | -2.92663 | 13589 ft | 346 kts | 298° |
| 2026-05-04 21:46 | 55.45075 | -2.96282 | 13300 ft | 334 kts | 300° |
| 2026-05-04 21:46 | 55.46570 | -2.99331 | 13005 ft | 327 kts | 321° |
| 2026-05-04 21:46 | 55.48593 | -3.01069 | 12776 ft | 320 kts | 338° |
| 2026-05-04 21:46 | 55.50685 | -3.02228 | 12542 ft | 310 kts | 340° |
| 2026-05-04 21:47 | 55.52722 | -3.03319 | 12272 ft | 301 kts | 340° |
| 2026-05-04 21:47 | 55.54706 | -3.04397 | 11882 ft | 297 kts | 339° |
| 2026-05-04 21:47 | 55.56672 | -3.05475 | 11473 ft | 294 kts | 339° |
| 2026-05-04 21:47 | 55.58592 | -3.06535 | 11087 ft | 292 kts | 339° |
| 2026-05-04 21:48 | 55.60523 | -3.07606 | 10673 ft | 290 kts | 339° |
| 2026-05-04 21:48 | 55.62445 | -3.08674 | 10259 ft | 288 kts | 339° |
| 2026-05-04 21:48 | 55.64349 | -3.09735 | 9860 ft | 286 kts | 339° |
| 2026-05-04 21:48 | 55.66238 | -3.10789 | 9421 ft | 284 kts | 339° |
| 2026-05-04 21:49 | 55.68115 | -3.11836 | 8980 ft | 282 kts | 340° |
| 2026-05-04 21:49 | 55.69975 | -3.12872 | 8623 ft | 276 kts | 340° |
| 2026-05-04 21:49 | 55.71815 | -3.13625 | 8399 ft | 270 kts | 354° |
| 2026-05-04 21:49 | 55.73487 | -3.13471 | 8207 ft | 264 kts | 4° |
| 2026-05-04 21:50 | 55.75293 | -3.13019 | 7871 ft | 261 kts | 5° |
| 2026-05-04 21:50 | 55.77080 | -3.12549 | 7526 ft | 258 kts | 5° |
| 2026-05-04 21:50 | 55.78850 | -3.12090 | 7183 ft | 256 kts | 6° |
| 2026-05-04 21:50 | 55.80605 | -3.11643 | 6837 ft | 254 kts | 6° |
| 2026-05-04 21:51 | 55.82318 | -3.11208 | 6517 ft | 250 kts | 6° |
| 2026-05-04 21:51 | 55.84037 | -3.10771 | 6187 ft | 247 kts | 5° |
| 2026-05-04 21:51 | 55.85724 | -3.10345 | 5820 ft | 246 kts | 6° |
| 2026-05-04 21:51 | 55.87406 | -3.09921 | 5562 ft | 242 kts | 6° |
| 2026-05-04 21:52 | 55.89059 | -3.09502 | 5407 ft | 241 kts | 5° |
| 2026-05-04 21:52 | 55.90710 | -3.09086 | 5252 ft | 239 kts | 6° |
| 2026-05-04 21:52 | 55.92365 | -3.08669 | 5110 ft | 240 kts | 6° |
| 2026-05-04 21:52 | 55.94015 | -3.08252 | 4957 ft | 239 kts | 6° |
| 2026-05-04 21:53 | 55.95663 | -3.07833 | 4799 ft | 238 kts | 5° |
| 2026-05-04 21:53 | 55.97303 | -3.07418 | 4659 ft | 237 kts | 5° |
| 2026-05-04 21:53 | 55.98939 | -3.07005 | 4496 ft | 238 kts | 6° |
| 2026-05-04 21:53 | 56.00558 | -3.06592 | 4366 ft | 237 kts | 5° |
| 2026-05-04 21:54 | 56.02211 | -3.06172 | 4205 ft | 236 kts | 6° |
| 2026-05-04 21:54 | 56.03828 | -3.05762 | 4093 ft | 230 kts | 6° |
| 2026-05-04 21:54 | 56.05370 | -3.05373 | 3978 ft | 218 kts | 5° |
| 2026-05-04 21:54 | 56.06808 | -3.05415 | 3913 ft | 201 kts | 344° |
| 2026-05-04 21:55 | 56.08009 | -3.06445 | 3789 ft | 186 kts | 319° |
| 2026-05-04 21:55 | 56.08778 | -3.08197 | 3632 ft | 175 kts | 295° |
| 2026-05-04 21:55 | 56.09052 | -3.10226 | 3494 ft | 164 kts | 273° |
| 2026-05-04 21:55 | 56.08880 | -3.12169 | 3299 ft | 155 kts | 252° |
| 2026-05-04 21:56 | 56.08341 | -3.13791 | 3158 ft | 151 kts | 233° |
| 2026-05-04 21:56 | 56.07515 | -3.14975 | 3048 ft | 155 kts | 213° |
| 2026-05-04 21:56 | 56.06469 | -3.15557 | 2995 ft | 161 kts | 191° |
| 2026-05-04 21:56 | 56.05345 | -3.15383 | 2983 ft | 165 kts | 167° |
| 2026-05-04 21:57 | 56.04288 | -3.14547 | 2983 ft | 166 kts | 157° |
| 2026-05-04 21:57 | 56.03188 | -3.14271 | 2968 ft | 161 kts | 199° |
| 2026-05-04 21:57 | 56.02326 | -3.15344 | 2870 ft | 148 kts | 238° |
| 2026-05-04 21:57 | 56.01830 | -3.16930 | 2653 ft | 146 kts | 248° |
| 2026-05-04 21:58 | 56.01353 | -3.18501 | 2431 ft | 140 kts | 243° |
| 2026-05-04 21:58 | 56.00852 | -3.19932 | 2226 ft | 131 kts | 243° |
| 2026-05-04 21:58 | 56.00383 | -3.21322 | 2058 ft | 130 kts | 244° |
| 2026-05-04 21:58 | 55.99928 | -3.22678 | 1876 ft | 130 kts | 243° |
| 2026-05-04 21:59 | 55.99462 | -3.24054 | 1705 ft | 130 kts | 243° |
| 2026-05-04 21:59 | 55.98998 | -3.25425 | 1513 ft | 128 kts | 243° |
| 2026-05-04 21:59 | 55.98539 | -3.26786 | 1343 ft | 128 kts | 243° |
| 2026-05-04 21:59 | 55.98080 | -3.28146 | 1154 ft | 128 kts | 241° |
| 2026-05-04 22:00 | 55.97620 | -3.29504 | 973 ft | 128 kts | 242° |
| 2026-05-04 22:00 | 55.97160 | -3.30864 | 795 ft | 126 kts | 241° |
| 2026-05-04 22:00 | 55.96711 | -3.32194 | 633 ft | 127 kts | 239° |
| 2026-05-04 22:00 | 55.96252 | -3.33548 | 431 ft | 126 kts | 241° |
| 2026-05-04 22:01 | 55.95796 | -3.34896 | 277 ft | 132 kts | 240° |
| 2026-05-04 22:01 | 55.95332 | -3.36259 | 136 ft | 134 kts | 240° |
| 2026-05-04 22:01 | 55.95019 | -3.37218 | 115 ft | 120 kts | 239° |
| 2026-05-04 22:01 | 55.94740 | -3.37984 | 117 ft | 99 kts | 238° |
| 2026-05-04 22:02 | 55.94597 | -3.38412 | 115 ft | 24 kts | 242° |
| 2026-05-04 22:02 | 55.94531 | -3.38627 | 116 ft | 17 kts | 241° |
| 2026-05-04 22:02 | 55.94467 | -3.38828 | 115 ft | 19 kts | 240° |
| 2026-05-04 22:02 | 55.94428 | -3.38924 | 119 ft | 12 kts | 220° |
| 2026-05-04 22:03 | 55.94366 | -3.38938 | 117 ft | 12 kts | 159° |
| 2026-05-04 22:03 | 55.94309 | -3.38889 | 117 ft | 0 kts | 148° |
| 2026-05-04 22:04 | 55.94287 | -3.38863 | 118 ft | 5 kts | 143° |
| 2026-05-04 22:04 | 55.94271 | -3.38702 | 117 ft | 16 kts | 54° |
| 2026-05-04 22:04 | 55.94357 | -3.38564 | 118 ft | 18 kts | 47° |
| 2026-05-04 22:04 | 55.94422 | -3.38368 | 118 ft | 19 kts | 62° |
| 2026-05-04 22:05 | 55.94500 | -3.38152 | 119 ft | 22 kts | 58° |
| 2026-05-04 22:05 | 55.94581 | -3.37916 | 117 ft | 23 kts | 59° |
| 2026-05-04 22:05 | 55.94669 | -3.37654 | 117 ft | 25 kts | 59° |
| 2026-05-04 22:05 | 55.94756 | -3.37394 | 117 ft | 22 kts | 59° |
| 2026-05-04 22:06 | 55.94810 | -3.37235 | 118 ft | 14 kts | 59° |
| 2026-05-04 22:06 | 55.94865 | -3.37071 | 120 ft | 17 kts | 58° |
| 2026-05-04 22:06 | 55.94931 | -3.36876 | 118 ft | 20 kts | 59° |
| 2026-05-04 22:06 | 55.95005 | -3.36655 | 121 ft | 21 kts | 59° |
| 2026-05-04 22:07 | 55.95084 | -3.36422 | 118 ft | 23 kts | 59° |
| 2026-05-04 22:07 | 55.95130 | -3.36249 | 118 ft | 10 kts | 78° |
| 2026-05-04 22:07 | 55.95117 | -3.36114 | 120 ft | 12 kts | 110° |
| 2026-05-04 22:07 | 55.95080 | -3.35964 | 119 ft | 9 kts | 116° |
| 2026-05-04 22:08 | 55.95078 | -3.35957 | 118 ft | 0 kts | 116° |
| 2026-05-04 22:08 | 55.95058 | -3.35895 | 118 ft | 8 kts | 128° |
| 2026-05-04 22:08 | 55.95003 | -3.35854 | 118 ft | 9 kts | 187° |
| 2026-05-04 22:08 | 55.94967 | -3.35933 | 119 ft | 10 kts | 255° |
| 2026-05-04 22:09 | 55.94958 | -3.35994 | 120 ft | 0 kts | 255° |
| 2026-05-04 22:09 | 55.94954 | -3.36020 | 118 ft | 2 kts | 255° |